Time;durP1;ratioP1;P1;durP2;ratioP2;P2;SDS_P1;SDS_P2;PMS_P1;PMS_P2;Temp;Humidity;BMP_temperature;BMP_pressure;BME280_temperature;BME280_humidity;BME280_pressure;Samples;Min_cycle;Max_cycle;Signal;HPM_P1;HPM_P2
2023/10/01 00:00:01;;;;;;;16.90;7.70;;;;;;;8.21;82.77;101210.96;130327;1257;114762;-70
2023/10/01 00:03:06;;;;;;;16.40;6.80;;;;;;;8.18;82.71;101209.44;130467;1267;114780;-69
2023/10/01 00:06:08;;;;;;;14.60;7.60;;;;;;;8.15;82.89;101209.85;130351;1275;128643;-69
2023/10/01 00:09:10;;;;;;;15.40;7.50;;;;;;;8.14;82.97;101209.37;130309;1266;115334;-68
2023/10/01 00:12:12;;;;;;;17.70;7.50;;;;;;;8.11;83.38;101213.52;130396;1260;114804;-68
2023/10/01 00:15:28;;;;;;;19.30;8.20;;;;;;;8.09;83.09;101207.16;130432;1256;114683;-69
2023/10/01 00:18:30;;;;;;;18.50;7.70;;;;;;;8.07;83.28;101204.36;130373;1254;114757;-69
2023/10/01 00:21:33;;;;;;;20.70;7.70;;;;;;;8.05;83.32;101203.69;130360;1267;114808;-68
2023/10/01 00:24:35;;;;;;;22.60;8.40;;;;;;;8.03;83.54;101202.33;130387;1257;115108;-69
2023/10/01 00:27:38;;;;;;;15.40;7.10;;;;;;;8.02;83.67;101203.80;130450;1266;114759;-69
2023/10/01 00:30:41;;;;;;;20.40;7.80;;;;;;;8.01;83.72;101200.96;130373;1266;115227;-69
2023/10/01 00:33:47;;;;;;;21.60;8.50;;;;;;;8.00;83.71;101201.86;130394;1254;114747;-69
2023/10/01 00:36:49;;;;;;;15.10;7.60;;;;;;;7.99;83.75;101202.43;130341;1257;114725;-68
2023/10/01 00:39:56;;;;;;;15.50;7.90;;;;;;;7.97;83.91;101195.70;130358;1266;114847;-69
2023/10/01 00:42:59;;;;;;;15.30;7.40;;;;;;;7.97;84.04;101196.77;130338;1257;128767;-67
2023/10/01 00:46:02;;;;;;;21.50;8.60;;;;;;;7.97;84.04;101192.86;130416;1275;114827;-67
2023/10/01 00:49:05;;;;;;;19.80;8.50;;;;;;;7.98;84.09;101186.98;130466;1272;114830;-69
2023/10/01 00:52:10;;;;;;;16.00;8.20;;;;;;;7.98;84.42;101186.09;130342;1254;115458;-70
2023/10/01 00:55:13;;;;;;;17.20;8.50;;;;;;;7.98;84.43;101183.43;130349;1267;114673;-70
2023/10/01 00:58:15;;;;;;;16.80;8.40;;;;;;;7.98;84.43;101187.70;130286;1260;130090;-70
2023/10/01 01:01:18;;;;;;;20.60;8.90;;;;;;;7.98;84.25;101187.33;130288;1254;114740;-69
2023/10/01 01:04:22;;;;;;;19.30;8.40;;;;;;;8.01;85.00;101193.32;130340;1257;115166;-68
2023/10/01 01:07:24;;;;;;;16.50;8.10;;;;;;;8.03;85.23;101196.80;130374;1260;114807;-68
2023/10/01 01:10:31;;;;;;;19.50;9.10;;;;;;;8.05;85.26;101192.85;130426;1261;114817;-69
2023/10/01 01:13:33;;;;;;;20.80;8.50;;;;;;;8.07;85.30;101192.80;130325;1258;114799;-69
2023/10/01 01:16:35;;;;;;;14.00;7.60;;;;;;;8.08;85.03;101203.65;130220;1259;115176;-68
2023/10/01 01:19:39;;;;;;;18.50;7.60;;;;;;;8.06;85.17;101204.02;130423;1258;114739;-69
2023/10/01 01:22:49;;;;;;;18.50;7.40;;;;;;;8.05;85.06;101203.16;130247;1257;115240;-69
2023/10/01 01:25:54;;;;;;;21.90;7.90;;;;;;;8.03;84.99;101195.20;130280;1267;114957;-68
2023/10/01 01:28:58;;;;;;;;;;;;;;;8.02;85.37;101196.48;130359;1256;114755;-67
2023/10/01 01:32:15;;;;;;;14.90;8.00;;;;;;;8.02;85.84;101194.88;130352;1257;114719;-67
2023/10/01 01:35:27;;;;;;;16.80;8.00;;;;;;;8.04;85.57;101184.52;130305;1260;128914;-67
2023/10/01 01:38:34;;;;;;;20.00;8.40;;;;;;;8.05;85.89;101180.39;130293;1276;115262;-69
2023/10/01 01:41:42;;;;;;;18.20;7.30;;;;;;;8.06;85.20;101175.04;130399;1257;114730;-69
2023/10/01 01:45:15;;;;;;;22.00;8.10;;;;;;;8.05;85.22;101165.09;130352;1254;114746;-66
2023/10/01 01:48:21;;;;;;;18.80;8.60;;;;;;;8.04;85.77;101170.11;130273;1274;114748;-68
2023/10/01 01:51:25;;;;;;;21.30;7.90;;;;;;;8.01;85.46;101169.29;130255;1273;127747;-67
2023/10/01 01:54:29;;;;;;;16.40;7.30;;;;;;;8.00;85.86;101173.59;130149;1276;115182;-66
2023/10/01 01:57:31;;;;;;;12.70;6.30;;;;;;;7.98;85.66;101179.33;130269;1258;115177;-68
2023/10/01 02:00:35;;;;;;;15.00;8.30;;;;;;;7.94;85.32;101173.56;130206;1257;115182;-67
2023/10/01 02:03:38;;;;;;;19.80;8.10;;;;;;;7.91;85.31;101177.37;130312;1257;114753;-68
2023/10/01 02:06:42;;;;;;;17.70;8.50;;;;;;;7.88;85.42;101179.73;130184;1273;115415;-68
2023/10/01 02:09:45;;;;;;;19.30;8.70;;;;;;;7.85;85.40;101176.45;130194;1258;114728;-68
2023/10/01 02:12:50;;;;;;;13.50;7.30;;;;;;;7.83;85.55;101168.13;130198;1257;114780;-68
2023/10/01 02:15:53;;;;;;;17.00;8.10;;;;;;;7.81;85.42;101165.69;130209;1270;114775;-67
2023/10/01 02:19:18;;;;;;;17.00;7.80;;;;;;;7.81;85.85;101166.94;130190;1257;114661;-68
2023/10/01 02:22:20;;;;;;;15.50;8.00;;;;;;;7.82;85.76;101174.73;130187;1257;129054;-67
2023/10/01 02:25:36;;;;;;;23.00;7.50;;;;;;;7.84;85.92;101167.94;130214;1276;114754;-68
2023/10/01 02:28:40;;;;;;;15.50;7.30;;;;;;;7.86;86.23;101163.06;130183;1257;115351;-68
2023/10/01 02:31:48;;;;;;;14.90;7.30;;;;;;;7.89;86.41;101164.79;130224;1257;114717;-67
2023/10/01 02:34:50;;;;;;;16.70;7.60;;;;;;;7.91;86.50;101171.13;130299;1253;115408;-67
2023/10/01 02:37:54;;;;;;;13.80;6.90;;;;;;;7.94;86.64;101175.88;130184;1254;114810;-68
2023/10/01 02:40:57;;;;;;;16.70;6.70;;;;;;;7.96;86.73;101172.78;130221;1257;114808;-70
2023/10/01 02:44:02;;;;;;;15.20;7.30;;;;;;;7.99;86.84;101171.48;130296;1257;114759;-68
2023/10/01 02:47:18;;;;;;;13.30;6.60;;;;;;;8.01;86.95;101169.99;129955;1260;114696;-68
2023/10/01 02:50:20;;;;;;;16.60;7.70;;;;;;;8.03;86.87;101171.38;130182;1276;115417;-68
2023/10/01 02:53:23;;;;;;;13.10;6.30;;;;;;;8.05;87.13;101172.02;130230;1276;114778;-67
2023/10/01 02:56:25;;;;;;;13.10;7.10;;;;;;;8.09;87.42;101171.42;130171;1254;114765;-69
2023/10/01 02:59:28;;;;;;;14.80;7.80;;;;;;;8.10;87.00;101168.90;130242;1257;114769;-67
2023/10/01 03:02:32;;;;;;;14.10;7.20;;;;;;;8.13;87.42;101165.08;130179;1257;115105;-67
2023/10/01 03:05:36;;;;;;;15.80;7.50;;;;;;;8.16;87.57;101158.59;130226;1276;115382;-68
2023/10/01 03:11:53;;;;;;;14.80;7.60;;;;;;;8.25;87.80;101166.55;130209;1257;128154;-67
2023/10/01 03:15:16;;;;;;;;;;;;;;;8.30;87.87;101155.92;130206;1273;114745;-66
2023/10/01 03:24:46;;;;;;;19.90;7.80;;;;;;;8.47;88.20;101157.61;130196;1257;114714;-67
2023/10/01 03:27:50;;;;;;;15.30;6.80;;;;;;;8.54;88.16;101153.54;130312;1276;128294;-67
2023/10/01 03:31:09;;;;;;;13.80;6.80;;;;;;;8.60;88.34;101151.75;130254;1276;115231;-68
2023/10/01 03:34:28;;;;;;;15.30;6.90;;;;;;;8.67;88.38;101157.45;130356;1257;114827;-67
2023/10/01 03:37:38;;;;;;;17.40;6.80;;;;;;;8.73;88.65;101152.11;130267;1256;114712;-67
2023/10/01 03:41:00;;;;;;;12.80;6.90;;;;;;;8.79;88.79;101155.69;130264;1257;114734;-67
2023/10/01 03:44:09;;;;;;;14.40;6.80;;;;;;;8.85;88.96;101163.19;130176;1258;128818;-67
2023/10/01 03:47:11;;;;;;;18.20;6.70;;;;;;;8.90;88.74;101165.01;130243;1254;115148;-67
2023/10/01 03:50:15;;;;;;;17.70;7.20;;;;;;;8.94;88.99;101164.00;130243;1255;115147;-66
2023/10/01 03:53:18;;;;;;;11.70;6.10;;;;;;;8.98;88.76;101161.21;130272;1254;114804;-66
2023/10/01 03:56:20;;;;;;;17.40;6.80;;;;;;;9.03;88.74;101162.50;129946;1257;114664;-68
2023/10/01 03:59:32;;;;;;;13.80;6.50;;;;;;;9.06;88.72;101162.03;130296;1256;114722;-67
2023/10/01 04:02:46;;;;;;;20.00;8.40;;;;;;;9.11;88.82;101154.59;130373;1275;114814;-68
2023/10/01 04:05:56;;;;;;;15.50;6.50;;;;;;;9.16;88.90;101159.09;130409;1254;115099;-68
2023/10/01 04:09:00;;;;;;;13.70;6.70;;;;;;;9.21;88.98;101162.69;130375;1275;114719;-68
2023/10/01 04:12:50;;;;;;;13.60;6.60;;;;;;;9.25;89.28;101160.95;130357;1275;115350;-67
2023/10/01 04:15:29;;;;;;;14.70;7.20;;;;;;;9.29;89.06;101159.04;130337;1257;129311;-67
2023/10/01 04:18:33;;;;;;;12.80;6.50;;;;;;;9.33;89.12;101163.59;130458;1256;115173;-68
2023/10/01 04:21:35;;;;;;;14.70;6.50;;;;;;;9.36;89.22;101160.44;130528;1272;115341;-68
2023/10/01 04:24:37;;;;;;;12.40;6.90;;;;;;;9.40;89.10;101156.23;130403;1254;114808;-67
2023/10/01 04:27:45;;;;;;;12.70;6.50;;;;;;;9.43;89.21;101156.84;130550;1256;114731;-68
2023/10/01 04:30:51;;;;;;;16.20;5.90;;;;;;;9.46;89.26;101155.33;130604;1256;115158;-68
2023/10/01 04:33:54;;;;;;;14.00;6.90;;;;;;;9.50;89.32;101149.33;130568;1256;128467;-68
2023/10/01 04:36:57;;;;;;;13.40;6.00;;;;;;;9.53;89.32;101141.20;130292;1254;116446;-68
2023/10/01 04:39:59;;;;;;;17.20;6.60;;;;;;;9.57;89.23;101138.41;130430;1257;114709;-67
2023/10/01 04:43:08;;;;;;;12.10;6.30;;;;;;;9.61;89.36;101137.94;130331;1256;114711;-66
2023/10/01 04:46:10;;;;;;;11.70;6.30;;;;;;;9.64;89.24;101146.01;130375;1267;114802;-69
2023/10/01 04:49:27;;;;;;;17.50;7.30;;;;;;;9.67;89.11;101143.41;130283;1256;114677;-68
2023/10/01 04:52:31;;;;;;;20.00;6.70;;;;;;;9.71;89.39;101145.78;130263;1275;128984;-69
2023/10/01 04:55:41;;;;;;;12.10;6.10;;;;;;;9.76;89.45;101142.98;130384;1253;115129;-68
2023/10/01 04:58:46;;;;;;;10.70;6.10;;;;;;;9.80;89.41;101147.30;130392;1256;114747;-67
2023/10/01 05:01:48;;;;;;;14.40;6.40;;;;;;;9.85;89.51;101156.60;130401;1257;114777;-67
2023/10/01 05:04:51;;;;;;;14.40;6.20;;;;;;;9.88;89.45;101158.98;130361;1254;114782;-68
2023/10/01 05:07:57;;;;;;;12.60;6.00;;;;;;;9.93;89.51;101162.41;130452;1256;114788;-68
2023/10/01 05:11:00;;;;;;;16.00;6.30;;;;;;;9.96;89.61;101165.48;130374;1269;115170;-69
2023/10/01 05:14:04;;;;;;;18.50;7.00;;;;;;;10.01;89.47;101163.56;130481;1254;115810;-67
2023/10/01 05:17:07;;;;;;;13.40;6.40;;;;;;;10.06;89.66;101163.58;130314;1256;114817;-67
2023/10/01 05:20:10;;;;;;;17.70;7.00;;;;;;;10.11;89.66;101164.29;130274;1256;114818;-67
2023/10/01 05:23:12;;;;;;;11.30;5.90;;;;;;;10.16;89.71;101160.56;130193;1270;114880;-68
2023/10/01 05:26:20;;;;;;;12.50;6.50;;;;;;;10.22;89.68;101154.45;130327;1254;114786;-68
2023/10/01 05:29:25;;;;;;;15.70;6.60;;;;;;;10.28;89.61;101154.79;130156;1257;115268;-68
2023/10/01 05:32:48;;;;;;;13.30;6.80;;;;;;;10.35;89.60;101157.95;128161;1253;3097268;-68
2023/10/01 05:35:52;;;;;;;14.10;6.70;;;;;;;10.41;89.91;101157.22;130296;1256;114719;-68
2023/10/01 05:38:54;;;;;;;12.50;7.30;;;;;;;10.47;89.76;101146.12;130282;1257;114706;-69
2023/10/01 05:41:57;;;;;;;14.00;6.70;;;;;;;10.54;89.75;101149.13;130391;1256;114779;-68
2023/10/01 05:44:59;;;;;;;17.00;7.90;;;;;;;10.59;89.48;101154.81;130280;1257;114753;-68
2023/10/01 05:48:02;;;;;;;15.30;6.50;;;;;;;10.66;89.55;101155.64;130536;1258;114757;-68
2023/10/01 05:51:06;;;;;;;14.40;7.50;;;;;;;10.72;89.55;101161.87;130232;1254;114854;-68
2023/10/01 05:54:09;;;;;;;13.40;7.70;;;;;;;10.78;89.08;101163.23;130250;1256;115173;-68
2023/10/01 05:57:11;;;;;;;18.40;7.10;;;;;;;10.86;89.34;101163.30;130330;1270;114821;-68
2023/10/01 06:00:26;;;;;;;24.90;8.80;;;;;;;10.93;89.39;101156.42;130239;1258;114740;-69
2023/10/01 06:03:30;;;;;;;13.80;7.20;;;;;;;11.03;89.14;101163.04;130262;1254;114736;-69
2023/10/01 06:06:36;;;;;;;20.50;9.00;;;;;;;11.15;89.02;101164.92;130302;1257;114748;-67
2023/10/01 06:09:41;;;;;;;23.60;7.70;;;;;;;11.27;88.88;101163.38;130294;1268;114818;-68
2023/10/01 06:12:50;;;;;;;14.60;7.30;;;;;;;11.41;89.16;101162.30;130223;1257;114796;-68
2023/10/01 06:15:52;;;;;;;11.20;6.70;;;;;;;11.57;88.78;101167.38;130257;1254;128602;-68
2023/10/01 06:18:59;;;;;;;11.30;7.00;;;;;;;11.74;88.88;101160.64;130212;1257;114800;-67
2023/10/01 06:22:15;;;;;;;17.40;7.20;;;;;;;11.91;88.44;101159.06;129925;1256;114788;-67
2023/10/01 06:25:37;;;;;;;15.00;7.50;;;;;;;12.11;88.68;101161.85;130193;1257;115254;-68
2023/10/01 06:28:41;;;;;;;17.10;7.50;;;;;;;12.30;88.55;101162.46;130209;1257;115109;-66
2023/10/01 06:32:03;;;;;;;20.90;9.00;;;;;;;12.48;88.13;101159.55;130200;1257;114763;-68
2023/10/01 06:35:05;;;;;;;15.20;7.90;;;;;;;12.69;87.89;101155.21;130184;1257;115368;-67
2023/10/01 06:38:08;;;;;;;16.90;8.20;;;;;;;12.90;87.99;101142.84;130227;1276;114814;-67
2023/10/01 06:41:25;;;;;;;17.90;7.60;;;;;;;13.10;87.78;101141.52;130178;1253;114914;-67
2023/10/01 06:44:27;;;;;;;16.90;8.00;;;;;;;13.29;87.36;101146.20;130204;1259;115123;-67
2023/10/01 06:47:29;;;;;;;19.60;8.60;;;;;;;13.44;86.96;101149.31;130371;1275;114817;-67
2023/10/01 06:50:33;;;;;;;14.70;8.10;;;;;;;13.57;86.72;101149.58;130517;1257;114776;-66
2023/10/01 06:53:45;;;;;;;16.90;8.40;;;;;;;13.69;86.12;101153.87;130206;1259;114731;-67
2023/10/01 06:56:47;;;;;;;16.70;7.20;;;;;;;13.81;85.98;101154.38;130206;1258;114868;-68
2023/10/01 06:59:49;;;;;;;18.80;8.30;;;;;;;13.94;85.61;101154.07;130456;1256;115144;-68
2023/10/01 07:02:51;;;;;;;16.20;7.90;;;;;;;14.11;85.47;101151.45;130413;1254;114764;-66
2023/10/01 07:05:56;;;;;;;16.80;9.00;;;;;;;14.28;85.07;101158.11;130406;1256;114737;-69
2023/10/01 07:09:00;;;;;;;;;;;;;;;14.41;84.97;101159.77;130284;1254;128791;-67
2023/10/01 07:12:03;;;;;;;18.80;8.30;;;;;;;14.51;84.59;101162.68;130380;1257;115207;-69
2023/10/01 07:15:06;;;;;;;15.30;8.30;;;;;;;14.59;84.33;101161.01;130278;1257;114724;-68
2023/10/01 07:18:19;;;;;;;17.20;8.10;;;;;;;14.69;84.35;101156.20;130334;1256;114733;-67
2023/10/01 07:21:21;;;;;;;16.50;8.00;;;;;;;14.78;83.89;101155.02;130273;1253;114687;-67
2023/10/01 07:24:30;;;;;;;16.00;7.60;;;;;;;14.89;83.71;101154.80;130238;1269;114714;-67
2023/10/01 07:27:33;;;;;;;17.30;6.90;;;;;;;15.00;83.14;101152.36;130138;1259;115256;-67
2023/10/01 07:30:45;;;;;;;13.60;6.50;;;;;;;15.13;82.97;101164.81;130257;1256;114859;-68
2023/10/01 07:33:48;;;;;;;15.00;6.70;;;;;;;15.32;82.94;101163.59;130245;1259;114973;-67
2023/10/01 07:36:56;;;;;;;13.40;6.10;;;;;;;15.54;82.59;101169.95;130501;1257;114804;-68
2023/10/01 07:40:09;;;;;;;20.80;6.90;;;;;;;15.71;81.78;101169.90;130540;1260;128783;-68
2023/10/01 07:43:11;;;;;;;13.00;6.60;;;;;;;15.89;81.95;101160.07;130360;1254;115163;-67
2023/10/01 07:46:14;;;;;;;17.00;7.00;;;;;;;16.04;81.24;101162.11;130388;1253;114805;-66
2023/10/01 07:49:18;;;;;;;18.30;7.80;;;;;;;16.15;80.99;101163.58;130399;1257;114783;-69
2023/10/01 07:52:21;;;;;;;12.20;6.30;;;;;;;16.28;80.78;101167.52;130423;1254;114781;-67
2023/10/01 07:55:29;;;;;;;14.50;6.30;;;;;;;16.43;80.48;101167.90;130255;1254;114787;-67
2023/10/01 07:58:47;;;;;;;13.20;6.40;;;;;;;16.59;80.14;101169.24;130286;1253;115697;-68
2023/10/01 08:02:07;;;;;;;17.20;6.60;;;;;;;16.76;79.81;101167.14;130259;1254;114712;-68
2023/10/01 08:05:09;;;;;;;15.00;7.00;;;;;;;16.92;79.44;101156.80;130082;1254;116284;-68
2023/10/01 08:08:13;;;;;;;12.50;6.40;;;;;;;17.09;79.33;101156.26;130292;1257;114729;-67
2023/10/01 08:14:37;;;;;;;11.00;5.70;;;;;;;17.39;78.26;101145.70;130218;1257;115302;-69
2023/10/01 08:17:43;;;;;;;11.70;5.80;;;;;;;17.48;77.74;101141.52;130271;1259;114904;-68
2023/10/01 08:20:58;;;;;;;17.60;6.30;;;;;;;17.57;77.38;101137.86;130261;1257;114726;-67
2023/10/01 08:24:09;;;;;;;18.30;6.10;;;;;;;17.67;77.13;101140.69;130321;1256;114746;-67
2023/10/01 08:27:12;;;;;;;13.70;5.70;;;;;;;17.73;76.53;101136.64;130227;1253;128869;-69
2023/10/01 08:30:18;;;;;;;11.40;5.50;;;;;;;17.79;76.07;101135.69;130209;1257;115464;-69
2023/10/01 08:33:22;;;;;;;17.90;6.20;;;;;;;17.88;75.99;101129.13;130239;1254;115461;-69
2023/10/01 08:36:26;;;;;;;14.70;6.50;;;;;;;18.05;76.34;101122.80;130291;1253;114884;-70
2023/10/01 08:39:47;;;;;;;13.50;5.10;;;;;;;18.23;75.69;101125.19;130349;1256;115096;-70
2023/10/01 08:42:52;;;;;;;11.50;5.00;;;;;;;18.39;74.71;101128.41;130196;1260;127982;-70
2023/10/01 08:45:57;;;;;;;11.20;5.20;;;;;;;18.47;74.40;101132.06;130415;1254;114805;-68
2023/10/01 08:49:22;;;;;;;12.20;4.70;;;;;;;18.51;73.77;101127.77;130339;1254;114766;-68
2023/10/01 08:52:26;;;;;;;13.50;4.60;;;;;;;18.60;73.85;101131.33;130015;1259;115225;-69
2023/10/01 08:55:39;;;;;;;14.90;4.10;;;;;;;18.72;73.45;101135.03;130464;1257;115212;-69
2023/10/01 08:58:48;;;;;;;14.80;3.70;;;;;;;18.86;73.22;101130.78;129908;1253;127859;-69
2023/10/01 09:01:55;;;;;;;8.30;3.90;;;;;;;19.01;72.56;101127.55;130238;1257;115336;-69
2023/10/01 09:04:57;;;;;;;13.70;4.20;;;;;;;19.19;72.45;101125.52;130305;1258;114754;-69
2023/10/01 09:08:26;;;;;;;10.10;3.70;;;;;;;19.39;72.14;101129.17;130210;1276;116338;-68
2023/10/01 09:11:35;;;;;;;9.80;3.50;;;;;;;19.58;71.43;101132.68;130278;1255;115107;-69
2023/10/01 09:14:39;;;;;;;7.20;2.80;;;;;;;19.76;70.69;101130.07;130261;1256;128459;-68
2023/10/01 09:17:56;;;;;;;10.30;3.30;;;;;;;19.88;69.90;101131.77;130217;1276;115242;-69
2023/10/01 09:21:20;;;;;;;10.30;3.50;;;;;;;20.01;69.31;101137.11;130308;1276;114805;-69
2023/10/01 09:24:39;;;;;;;9.10;3.30;;;;;;;20.10;68.18;101134.11;130287;1276;114833;-69
2023/10/01 09:27:57;;;;;;;9.70;3.10;;;;;;;20.20;67.66;101133.65;130323;1257;114858;-68
2023/10/01 09:31:26;;;;;;;9.80;3.60;;;;;;;20.34;67.40;101135.13;130168;1259;127943;-69
2023/10/01 09:34:31;;;;;;;14.20;4.00;;;;;;;20.47;67.27;101138.85;130325;1254;115218;-69
2023/10/01 09:37:42;;;;;;;13.10;4.30;;;;;;;20.60;67.04;101135.66;130315;1258;114818;-70
2023/10/01 09:40:46;;;;;;;9.10;4.00;;;;;;;20.72;66.55;101125.70;130316;1253;114726;-70
2023/10/01 09:43:49;;;;;;;8.60;3.30;;;;;;;20.87;66.72;101126.14;130348;1276;114855;-69
2023/10/01 09:46:52;;;;;;;10.70;4.00;;;;;;;21.08;65.98;101126.09;130334;1254;114770;-68
2023/10/01 09:49:54;;;;;;;11.50;3.90;;;;;;;21.22;65.71;101119.17;130361;1257;114817;-68
2023/10/01 09:53:00;;;;;;;8.00;3.80;;;;;;;21.32;64.98;101117.08;130377;1253;114837;-69
2023/10/01 09:56:04;;;;;;;9.60;3.90;;;;;;;21.41;64.43;101113.80;130329;1257;114718;-68
2023/10/01 09:59:07;;;;;;;10.30;4.60;;;;;;;21.48;63.91;101116.85;130343;1257;115298;-68
2023/10/01 10:02:10;;;;;;;12.20;4.70;;;;;;;21.62;63.54;101118.28;130371;1259;127675;-69
2023/10/01 10:05:24;;;;;;;16.90;5.30;;;;;;;21.75;63.40;101113.52;130276;1276;114744;-69
2023/10/01 10:08:34;;;;;;;14.10;4.50;;;;;;;21.88;62.69;101107.75;130406;1253;114775;-70
2023/10/01 10:11:39;;;;;;;9.60;3.40;;;;;;;21.93;62.06;101115.86;130381;1276;114792;-68
2023/10/01 10:14:44;;;;;;;9.60;3.60;;;;;;;21.95;61.55;101119.86;130415;1257;114713;-70
2023/10/01 10:17:56;;;;;;;11.10;3.40;;;;;;;21.93;61.35;101114.77;130176;1258;128197;-70
2023/10/01 10:20:59;;;;;;;10.10;3.70;;;;;;;21.98;61.20;101107.41;130314;1257;115189;-69
2023/10/01 10:24:02;;;;;;;7.50;2.80;;;;;;;21.99;60.72;101100.59;130177;1254;114977;-70
2023/10/01 10:27:27;;;;;;;8.80;3.50;;;;;;;22.01;60.15;101095.14;130347;1276;114735;-69
2023/10/01 10:30:27;;;;;;;12.40;3.90;;;;;;;22.00;60.11;101091.23;130319;1276;114942;-71
2023/10/01 10:33:42;;;;;;;12.40;3.90;;;;;;;22.02;59.70;101087.67;130294;1257;114753;-67
2023/10/01 10:36:51;;;;;;;7.30;2.10;;;;;;;21.99;59.18;101086.81;130433;1253;115409;-67
2023/10/01 10:40:02;;;;;;;9.20;2.30;;;;;;;22.01;59.05;101090.83;130396;1259;115093;-67
2023/10/01 10:43:07;;;;;;;9.70;2.70;;;;;;;22.10;58.59;101093.31;130359;1257;114746;-68
2023/10/01 10:46:09;;;;;;;8.70;2.40;;;;;;;22.18;57.98;101088.11;130211;1259;114733;-67
2023/10/01 10:49:11;;;;;;;9.00;2.80;;;;;;;22.25;57.50;101090.39;130290;1275;115084;-68
2023/10/01 10:52:31;;;;;;;9.00;3.30;;;;;;;22.35;57.35;101094.63;130436;1256;114816;-68
2023/10/01 10:55:36;;;;;;;7.70;2.30;;;;;;;22.46;57.08;101090.60;130271;1253;115223;-68
2023/10/01 10:58:53;;;;;;;10.00;3.20;;;;;;;22.55;56.85;101087.46;130421;1256;115107;-68
2023/10/01 11:01:56;;;;;;;6.90;2.40;;;;;;;22.58;55.86;101083.55;130471;1256;114730;-68
2023/10/01 11:04:58;;;;;;;9.30;2.70;;;;;;;22.55;55.61;101082.73;130022;1261;114837;-69
2023/10/01 11:08:02;;;;;;;8.10;2.40;;;;;;;22.49;55.58;101078.39;130361;1254;114679;-69
2023/10/01 11:11:10;;;;;;;7.30;3.00;;;;;;;22.44;55.60;101077.48;130533;1275;114750;-69
2023/10/01 11:14:18;;;;;;;9.00;2.70;;;;;;;22.42;55.71;101077.48;130356;1256;114835;-69
2023/10/01 11:17:22;;;;;;;9.20;2.80;;;;;;;22.41;55.04;101081.92;130519;1275;114743;-69
2023/10/01 11:20:24;;;;;;;7.00;2.60;;;;;;;22.38;54.89;101078.92;130530;1256;114653;-70
2023/10/01 11:23:26;;;;;;;4.70;3.10;;;;;;;22.39;54.86;101071.52;130230;1257;114741;-69
2023/10/01 11:26:29;;;;;;;6.30;2.60;;;;;;;22.34;54.57;101071.23;130177;1259;114721;-68
2023/10/01 11:29:31;;;;;;;9.80;3.30;;;;;;;22.30;54.33;101069.05;130260;1257;115173;-68
2023/10/01 11:33:33;;;;;;;9.50;2.20;;;;;;;22.30;54.62;101065.77;130273;1257;114802;-68
2023/10/01 11:36:09;;;;;;;7.60;2.70;;;;;;;22.25;53.80;101067.45;130213;1257;114760;-69
2023/10/01 11:39:16;;;;;;;10.80;2.80;;;;;;;22.25;54.26;101055.15;130397;1259;114783;-71
2023/10/01 11:42:38;;;;;;;7.40;2.50;;;;;;;22.30;54.33;101053.02;130615;1257;128737;-72
2023/10/01 11:45:48;;;;;;;8.00;2.90;;;;;;;22.32;54.07;101050.14;130731;1254;115150;-71
2023/10/01 11:49:01;;;;;;;6.60;3.10;;;;;;;22.33;53.79;101043.91;130710;1253;114658;-71
2023/10/01 11:52:21;;;;;;;8.70;2.50;;;;;;;22.29;53.65;101037.80;130627;1259;114736;-70
2023/10/01 11:55:23;;;;;;;4.90;2.20;;;;;;;22.27;53.48;101036.91;130656;1256;115146;-71
2023/10/01 11:58:26;;;;;;;3.60;1.60;;;;;;;22.26;52.78;101036.59;130712;1275;114731;-71
2023/10/01 12:01:38;;;;;;;7.00;2.50;;;;;;;22.29;52.90;101033.77;130607;1256;114724;-72
2023/10/01 12:04:44;;;;;;;4.30;2.10;;;;;;;22.37;52.77;101031.54;130479;1256;114799;-72
2023/10/01 12:07:46;;;;;;;11.50;2.90;;;;;;;22.47;52.69;101027.71;130428;1256;114716;-72
2023/10/01 12:10:51;;;;;;;7.00;3.50;;;;;;;22.57;51.74;101026.48;130456;1258;114808;-70
2023/10/01 12:14:17;;;;;;;8.70;2.50;;;;;;;22.65;51.85;101027.28;130329;1254;129023;-72
2023/10/01 12:17:27;;;;;;;6.10;1.70;;;;;;;22.69;51.53;101025.96;130526;1256;115154;-71
2023/10/01 12:20:29;;;;;;;5.60;1.40;;;;;;;22.70;51.43;101031.72;130484;1275;114770;-72
2023/10/01 12:23:33;;;;;;;8.10;3.40;;;;;;;22.70;51.35;101030.45;130099;1275;115507;-72
2023/10/01 12:26:36;;;;;;;6.30;2.60;;;;;;;22.67;50.94;101027.10;130529;1275;114724;-71
2023/10/01 12:29:48;;;;;;;6.10;2.00;;;;;;;22.59;51.06;101020.44;130384;1257;115086;-72
2023/10/01 12:32:52;;;;;;;4.30;2.00;;;;;;;22.53;50.98;101027.05;130464;1254;115343;-70
2023/10/01 12:35:53;;;;;;;6.40;2.20;;;;;;;22.46;50.77;101024.55;130355;1256;114773;-71
2023/10/01 12:42:13;;;;;;;10.40;2.90;;;;;;;22.20;50.25;101024.06;130462;1275;114749;-71
2023/10/01 12:45:19;;;;;;;6.80;2.10;;;;;;;22.09;50.12;101026.80;130430;1275;114731;-71
2023/10/01 12:48:21;;;;;;;5.50;2.30;;;;;;;21.96;50.08;101022.30;130253;1259;115256;-72
2023/10/01 12:51:32;;;;;;;11.70;2.80;;;;;;;21.81;50.08;101024.86;130501;1273;114785;-70
2023/10/01 12:54:38;;;;;;;6.50;2.20;;;;;;;21.63;50.26;101024.88;130409;1254;114741;-70
2023/10/01 12:57:41;;;;;;;6.90;2.90;;;;;;;21.45;50.06;101023.13;130298;1276;114766;-71
2023/10/01 13:00:45;;;;;;;8.60;3.20;;;;;;;21.29;50.35;101021.73;130280;1253;115324;-69
2023/10/01 13:03:47;;;;;;;;;;;;;;;21.13;50.50;101012.86;130398;1259;114760;-69
2023/10/01 13:06:50;;;;;;;10.40;3.80;;;;;;;21.01;50.54;101019.65;130526;1258;114835;-70
2023/10/01 13:12:57;;;;;;;8.90;2.90;;;;;;;20.76;50.53;101017.29;130473;1253;114820;-70
2023/10/01 13:16:00;;;;;;;3.40;2.10;;;;;;;20.72;50.82;101014.49;130219;1259;114812;-70
2023/10/01 13:19:02;;;;;;;6.30;2.10;;;;;;;20.73;51.00;101014.83;130046;1259;127761;-67
2023/10/01 13:22:04;;;;;;;4.50;2.20;;;;;;;20.74;50.82;101018.36;130189;1277;115177;-69
2023/10/01 13:25:06;;;;;;;12.30;3.00;;;;;;;20.72;50.74;101017.84;130258;1259;114748;-70
2023/10/01 13:28:08;;;;;;;6.10;2.10;;;;;;;20.70;50.89;101011.45;130207;1257;114751;-69
2023/10/01 13:31:24;;;;;;;4.70;2.20;;;;;;;20.70;50.80;101005.48;130355;1277;114862;-69
2023/10/01 13:34:33;;;;;;;8.10;2.00;;;;;;;20.67;50.97;100998.10;130280;1259;114818;-69
2023/10/01 13:37:47;;;;;;;7.30;2.90;;;;;;;20.66;51.08;100993.42;130223;1258;128623;-68
2023/10/01 14:11:08;;;;;;;6.40;2.50;;;;;;;20.94;50.86;100975.69;130107;1258;128712;-68
2023/10/01 14:14:16;;;;;;;6.70;2.30;;;;;;;20.91;50.80;100975.23;130217;1261;114746;-68
2023/10/01 14:17:18;;;;;;;7.00;2.80;;;;;;;20.89;50.99;100977.80;130211;1254;115166;-68
2023/10/01 14:23:44;;;;;;;6.20;2.40;;;;;;;20.80;51.20;100985.80;130142;1254;114834;-67
2023/10/01 14:26:46;;;;;;;5.80;2.50;;;;;;;20.74;51.31;100987.52;130391;1275;114782;-67
2023/10/01 14:30:00;;;;;;;7.00;2.20;;;;;;;20.67;51.34;100986.84;130383;1275;114745;-68
2023/10/01 14:33:23;;;;;;;7.80;4.10;;;;;;;20.59;51.61;100978.17;130502;1254;115205;-70
2023/10/01 14:36:26;;;;;;;8.10;4.00;;;;;;;20.50;51.44;100974.80;130441;1257;115535;-68
2023/10/01 14:39:30;;;;;;;5.90;2.40;;;;;;;20.39;51.38;100973.46;130438;1265;114821;-69
2023/10/01 14:42:36;;;;;;;6.60;2.40;;;;;;;20.30;51.81;100975.08;130443;1275;114910;-70
2023/10/01 14:45:44;;;;;;;5.90;2.30;;;;;;;20.19;51.70;100964.54;130320;1267;129027;-68
2023/10/01 14:48:46;;;;;;;12.30;6.80;;;;;;;20.07;51.75;100968.00;130345;1267;114812;-68
2023/10/01 14:51:53;;;;;;;7.00;3.40;;;;;;;19.95;51.85;100965.90;130348;1254;115218;-68
2023/10/01 14:55:01;;;;;;;5.50;2.80;;;;;;;19.81;52.06;100965.66;130544;1275;114779;-67
2023/10/01 14:58:03;;;;;;;6.00;2.20;;;;;;;19.69;52.58;100962.05;130614;1256;114848;-68